createdAt,value
2016-08-18T00:00:28.811Z,0
2016-08-18T00:01:29.507Z,0
2016-08-18T00:02:28.792Z,0
2016-08-18T00:03:29.488Z,0
2016-08-18T00:04:28.747Z,0
2016-08-18T00:05:29.458Z,0
2016-08-18T00:06:28.715Z,0
2016-08-18T00:07:28.714Z,0
2016-08-18T00:08:28.691Z,0
2016-08-18T00:09:29.395Z,0
2016-08-18T00:10:29.387Z,0
2016-08-18T00:11:29.371Z,0
2016-08-18T00:12:29.338Z,0
2016-08-18T00:13:29.339Z,0
2016-08-18T00:14:29.325Z,0
2016-08-18T00:15:29.312Z,0
2016-08-18T00:16:28.589Z,0
2016-08-18T00:17:29.269Z,0
2016-08-18T00:18:29.268Z,0
2016-08-18T00:19:29.265Z,0
2016-08-18T00:20:28.518Z,0
2016-08-18T00:21:27.812Z,0
2016-08-18T00:22:29.232Z,0
2016-08-18T00:23:29.194Z,0
2016-08-18T00:24:27.032Z,0
2016-08-18T00:25:29.262Z,0
2016-08-18T00:26:29.144Z,0
2016-08-18T00:27:29.148Z,0
2016-08-18T00:28:28.418Z,0
2016-08-18T00:29:28.391Z,0
2016-08-18T00:30:29.098Z,0
2016-08-18T00:31:28.400Z,0
2016-08-18T00:32:28.350Z,0
2016-08-18T00:33:29.138Z,0
2016-08-18T00:34:28.319Z,0
2016-08-18T00:35:28.322Z,0
2016-08-18T00:36:28.289Z,0
2016-08-18T00:37:29.007Z,0
2016-08-18T00:38:28.269Z,0
2016-08-18T00:39:28.336Z,0
2016-08-18T00:40:28.947Z,0
2016-08-18T00:41:28.956Z,0
2016-08-18T00:42:28.930Z,0
2016-08-18T00:43:28.194Z,0
2016-08-18T00:44:28.188Z,0
2016-08-18T00:45:28.195Z,0
2016-08-18T00:46:28.871Z,0
2016-08-18T00:47:28.881Z,0
2016-08-18T00:48:28.115Z,0
2016-08-18T00:49:28.141Z,0
2016-08-18T00:50:28.812Z,0
2016-08-18T00:51:28.099Z,0
2016-08-18T00:52:28.790Z,0
2016-08-18T00:53:28.799Z,0
2016-08-18T00:54:28.751Z,0
2016-08-18T00:55:27.311Z,0
2016-08-18T00:56:28.731Z,0
2016-08-18T00:57:27.268Z,0
2016-08-18T00:58:27.990Z,0
2016-08-18T00:59:27.956Z,0
2016-08-18T01:00:27.958Z,0
2016-08-18T01:01:27.225Z,0
2016-08-18T01:02:28.646Z,0
2016-08-18T01:03:27.910Z,0
2016-08-18T01:04:27.295Z,0
2016-08-18T01:05:28.601Z,0
2016-08-18T01:06:27.147Z,0
2016-08-18T01:07:27.850Z,0
2016-08-18T01:08:28.542Z,0
2016-08-18T01:09:27.849Z,0
2016-08-18T01:10:28.520Z,0
2016-08-18T01:11:27.808Z,0
2016-08-18T01:12:28.487Z,0
2016-08-18T01:13:28.481Z,0
2016-08-18T01:14:28.460Z,0
2016-08-18T01:15:28.538Z,0
2016-08-18T01:16:28.426Z,0
2016-08-18T01:17:27.696Z,0
2016-08-18T01:18:28.398Z,0
2016-08-18T01:19:28.398Z,0
2016-08-18T01:20:28.379Z,0
2016-08-18T01:21:28.384Z,0
2016-08-18T01:22:28.357Z,0
2016-08-18T01:23:27.606Z,0
2016-08-18T01:24:28.321Z,0
2016-08-18T01:25:28.288Z,0
2016-08-18T01:26:27.565Z,0
2016-08-18T01:27:27.631Z,0
2016-08-18T01:28:28.270Z,0
2016-08-18T01:29:28.320Z,0
2016-08-18T01:30:27.510Z,0
2016-08-18T01:31:28.291Z,0
2016-08-18T01:32:28.211Z,0
2016-08-18T01:33:27.470Z,0
2016-08-18T01:34:28.169Z,0
2016-08-18T01:35:26.711Z,0
2016-08-18T01:36:27.420Z,0
2016-08-18T01:37:26.702Z,0
2016-08-18T01:38:28.096Z,0
2016-08-18T01:39:27.395Z,0
2016-08-18T01:40:26.649Z,0
2016-08-18T01:41:28.083Z,0
2016-08-18T01:42:28.039Z,0
2016-08-18T01:43:28.033Z,0
2016-08-18T01:44:27.300Z,0
2016-08-18T01:45:27.297Z,0
2016-08-18T01:46:28.003Z,0
2016-08-18T01:47:27.974Z,0
2016-08-18T01:48:27.953Z,0
2016-08-18T01:49:27.976Z,0
2016-08-18T01:50:27.940Z,0
2016-08-18T01:51:27.193Z,0
2016-08-18T01:52:27.910Z,0
2016-08-18T01:53:27.175Z,0
2016-08-18T01:54:27.170Z,0
2016-08-18T01:55:27.860Z,0
2016-08-18T01:56:27.842Z,0
2016-08-18T01:57:27.840Z,0
2016-08-18T01:58:27.168Z,0
2016-08-18T01:59:27.784Z,0
2016-08-18T02:00:27.780Z,0
2016-08-18T02:01:27.753Z,0
2016-08-18T02:02:27.123Z,0
2016-08-18T02:03:27.730Z,0
2016-08-18T02:04:27.727Z,0
2016-08-18T02:05:27.710Z,0
2016-08-18T02:06:27.755Z,0
2016-08-18T02:07:26.956Z,0
2016-08-18T02:08:27.658Z,0
2016-08-18T02:09:28.479Z,0
2016-08-18T02:10:27.682Z,0
2016-08-18T02:11:26.889Z,0
2016-08-18T02:12:27.753Z,0
2016-08-18T02:13:27.621Z,0
2016-08-18T02:14:26.897Z,0
2016-08-18T02:15:27.563Z,0
2016-08-18T02:16:27.590Z,0
2016-08-18T02:17:27.533Z,0
2016-08-18T02:18:27.559Z,0
2016-08-18T02:19:27.497Z,0
2016-08-18T02:20:27.561Z,0
2016-08-18T02:21:27.469Z,0
2016-08-18T02:22:27.550Z,0
2016-08-18T02:23:26.709Z,0
2016-08-18T02:24:26.833Z,0
2016-08-18T02:25:27.419Z,0
2016-08-18T02:26:27.437Z,0
2016-08-18T02:27:27.396Z,0
2016-08-18T02:28:27.383Z,0
2016-08-18T02:29:27.341Z,0
2016-08-18T02:30:27.343Z,0
2016-08-18T02:31:27.314Z,0
2016-08-18T02:32:27.369Z,0
2016-08-18T02:33:27.272Z,0
2016-08-18T02:34:26.555Z,0
2016-08-18T02:35:27.256Z,0
2016-08-18T02:36:25.899Z,0
2016-08-18T02:37:27.217Z,0
2016-08-18T02:38:27.220Z,0
2016-08-18T02:39:26.480Z,0
2016-08-18T02:40:27.189Z,0
2016-08-18T02:41:27.167Z,0
2016-08-18T02:42:27.179Z,0
2016-08-18T02:43:26.418Z,0
2016-08-18T02:44:27.150Z,0
2016-08-18T02:45:26.386Z,0
2016-08-18T02:46:25.009Z,0
2016-08-18T02:47:25.649Z,0
2016-08-18T02:48:26.343Z,0
2016-08-18T02:49:27.040Z,0
2016-08-18T02:50:26.316Z,0
2016-08-18T02:51:27.000Z,0
2016-08-18T02:52:26.289Z,0
2016-08-18T02:53:27.000Z,0
2016-08-18T02:54:27.009Z,0
2016-08-18T02:55:26.229Z,0
2016-08-18T02:56:26.276Z,0
2016-08-18T02:57:26.929Z,0
2016-08-18T02:58:26.948Z,0
2016-08-18T02:59:26.167Z,0
2016-08-18T03:00:26.854Z,0
2016-08-18T03:01:26.859Z,0
2016-08-18T03:02:26.859Z,0
2016-08-18T03:03:26.830Z,0
2016-08-18T03:04:26.860Z,0
2016-08-18T03:05:26.802Z,0
2016-08-18T03:06:26.069Z,0
2016-08-18T03:07:26.780Z,0
2016-08-18T03:08:26.940Z,0
2016-08-18T03:09:26.730Z,0
2016-08-18T03:10:25.997Z,0
2016-08-18T03:11:26.008Z,0
2016-08-18T03:12:26.695Z,0
2016-08-18T03:13:26.698Z,0
2016-08-18T03:14:26.654Z,0
2016-08-18T03:15:26.658Z,0
2016-08-18T03:16:25.917Z,0
2016-08-18T03:17:25.894Z,0
2016-08-18T03:18:26.643Z,0
2016-08-18T03:19:26.588Z,0
2016-08-18T03:20:25.126Z,0
2016-08-18T03:21:26.549Z,0
2016-08-18T03:22:26.551Z,0
2016-08-18T03:23:26.531Z,0
2016-08-18T03:24:26.540Z,0
2016-08-18T03:25:26.478Z,0
2016-08-18T03:26:25.766Z,0
2016-08-18T03:27:25.750Z,0
2016-08-18T03:28:26.446Z,0
2016-08-18T03:29:25.718Z,0
2016-08-18T03:30:26.418Z,0
2016-08-18T03:31:25.676Z,0
2016-08-18T03:32:25.666Z,0
2016-08-18T03:33:26.359Z,0
2016-08-18T03:34:26.379Z,0
2016-08-18T03:35:26.330Z,0
2016-08-18T03:36:25.603Z,0
2016-08-18T03:37:26.316Z,0
2016-08-18T03:38:26.298Z,0
2016-08-18T03:39:26.256Z,0
2016-08-18T03:40:26.258Z,0
2016-08-18T03:41:26.240Z,0
2016-08-18T03:42:26.214Z,0
2016-08-18T03:43:26.214Z,0
2016-08-18T03:44:26.189Z,0
2016-08-18T03:45:25.466Z,0
2016-08-18T03:46:26.159Z,4
2016-08-18T03:47:26.149Z,4
2016-08-18T03:48:26.126Z,0
2016-08-18T03:49:26.110Z,4
2016-08-18T03:50:26.099Z,4
2016-08-18T03:51:26.079Z,4
2016-08-18T03:52:26.065Z,4
2016-08-18T03:53:25.330Z,4
2016-08-18T03:54:26.030Z,8
2016-08-18T03:55:26.016Z,8
2016-08-18T03:56:24.561Z,12
2016-08-18T03:57:25.986Z,12
2016-08-18T03:58:25.988Z,12
2016-08-18T03:59:25.962Z,16
2016-08-18T04:00:25.225Z,16
2016-08-18T04:01:25.209Z,20
2016-08-18T04:02:25.910Z,20
2016-08-18T04:03:25.898Z,24
2016-08-18T04:04:25.890Z,28
2016-08-18T04:05:25.156Z,32
2016-08-18T04:06:25.847Z,36
2016-08-18T04:07:25.829Z,40
2016-08-18T04:08:25.804Z,44
2016-08-18T04:09:25.805Z,52
2016-08-18T04:10:25.066Z,56
2016-08-18T04:11:25.849Z,64
2016-08-18T04:12:25.040Z,68
2016-08-18T04:13:25.855Z,80
2016-08-18T04:14:25.719Z,88
2016-08-18T04:15:24.997Z,100
2016-08-18T04:16:25.687Z,108
2016-08-18T04:17:25.679Z,120
2016-08-18T04:18:25.655Z,132
2016-08-18T04:19:24.974Z,144
2016-08-18T04:20:24.912Z,152
2016-08-18T04:21:24.898Z,164
2016-08-18T04:22:25.598Z,176
2016-08-18T04:23:24.930Z,192
2016-08-18T04:24:25.553Z,208
2016-08-18T04:25:25.568Z,224
2016-08-18T04:26:25.528Z,240
2016-08-18T04:27:25.550Z,252
2016-08-18T04:28:25.488Z,272
2016-08-18T04:29:24.753Z,288
2016-08-18T04:30:25.465Z,304
2016-08-18T04:31:25.452Z,320
2016-08-18T04:32:25.440Z,340
2016-08-18T04:33:25.445Z,356
2016-08-18T04:34:24.681Z,376
2016-08-18T04:35:25.419Z,400
2016-08-18T04:36:25.376Z,420
2016-08-18T04:37:25.379Z,448
2016-08-18T04:38:25.330Z,476
2016-08-18T04:39:25.349Z,500
2016-08-18T04:40:25.329Z,524
2016-08-18T04:41:25.356Z,544
2016-08-18T04:42:24.559Z,568
2016-08-18T04:43:25.268Z,588
2016-08-18T04:44:24.526Z,608
2016-08-18T04:45:25.228Z,628
2016-08-18T04:46:25.215Z,652
2016-08-18T04:47:25.193Z,676
2016-08-18T04:48:25.189Z,696
2016-08-18T04:49:24.552Z,720
2016-08-18T04:50:25.155Z,744
2016-08-18T04:51:25.179Z,760
2016-08-18T04:52:24.393Z,784
2016-08-18T04:53:25.104Z,808
2016-08-18T04:54:25.087Z,828
2016-08-18T04:55:25.076Z,848
2016-08-18T04:56:25.049Z,872
2016-08-18T04:57:25.030Z,892
2016-08-18T04:58:25.023Z,912
2016-08-18T04:59:24.287Z,932
2016-08-18T05:00:24.282Z,956
2016-08-18T05:01:24.973Z,976
2016-08-18T05:02:24.956Z,996
2016-08-18T05:03:24.983Z,1016
2016-08-18T05:04:24.205Z,1040
2016-08-18T05:05:23.489Z,1060
2016-08-18T05:06:24.899Z,1080
2016-08-18T05:07:24.877Z,1104
2016-08-18T05:08:23.422Z,1124
2016-08-18T05:09:24.187Z,1144
2016-08-18T05:10:23.396Z,1164
2016-08-18T05:11:24.094Z,1184
2016-08-18T05:12:24.783Z,1208
2016-08-18T05:13:24.122Z,1224
2016-08-18T05:14:24.069Z,1244
2016-08-18T05:15:24.752Z,1264
2016-08-18T05:16:24.750Z,1288
2016-08-18T05:17:24.007Z,1304
2016-08-18T05:18:23.979Z,1320
2016-08-18T05:19:24.736Z,1340
2016-08-18T05:20:23.961Z,1360
2016-08-18T05:21:23.230Z,1376
2016-08-18T05:22:23.926Z,1392
2016-08-18T05:23:24.619Z,1416
2016-08-18T05:24:24.601Z,1432
2016-08-18T05:25:23.891Z,1448
2016-08-18T05:26:23.190Z,1468
2016-08-18T05:27:24.554Z,1484
2016-08-18T05:28:23.834Z,1500
2016-08-18T05:29:24.540Z,1520
2016-08-18T05:30:24.523Z,1540
2016-08-18T05:31:23.777Z,1552
2016-08-18T05:32:23.769Z,1572
2016-08-18T05:33:23.057Z,1588
2016-08-18T05:34:24.452Z,1592
2016-08-18T05:35:23.730Z,1620
2016-08-18T05:36:24.418Z,1636
2016-08-18T05:37:24.428Z,1656
2016-08-18T05:38:24.381Z,1676
2016-08-18T05:39:23.669Z,1692
2016-08-18T05:40:23.647Z,1704
2016-08-18T05:41:23.646Z,1720
2016-08-18T05:42:24.323Z,1736
2016-08-18T05:43:24.308Z,1756
2016-08-18T05:44:24.288Z,1772
2016-08-18T05:45:23.558Z,1788
2016-08-18T05:46:24.264Z,1808
2016-08-18T05:47:24.278Z,1828
2016-08-18T05:48:23.520Z,1844
2016-08-18T05:49:23.493Z,1864
2016-08-18T05:50:23.489Z,1884
2016-08-18T05:51:24.191Z,1904
2016-08-18T05:52:23.455Z,1920
2016-08-18T05:53:24.252Z,1940
2016-08-18T05:54:23.509Z,1956
2016-08-18T05:55:24.140Z,1972
2016-08-18T05:56:23.408Z,1992
2016-08-18T05:57:24.107Z,2008
2016-08-18T05:58:24.076Z,2024
2016-08-18T05:59:24.073Z,2044
2016-08-18T06:00:23.386Z,2060
2016-08-18T06:01:24.036Z,2080
2016-08-18T06:02:22.596Z,2100
2016-08-18T06:03:24.037Z,2120
2016-08-18T06:04:23.255Z,2136
2016-08-18T06:05:23.250Z,2156
2016-08-18T06:06:23.248Z,2176
2016-08-18T06:07:23.217Z,2196
2016-08-18T06:08:22.507Z,2216
2016-08-18T06:09:21.783Z,2232
2016-08-18T06:10:22.519Z,2252
2016-08-18T06:11:23.940Z,2268
2016-08-18T06:12:23.867Z,2288
2016-08-18T06:13:23.175Z,2308
2016-08-18T06:14:23.839Z,2328
2016-08-18T06:15:23.861Z,2352
2016-08-18T06:16:23.798Z,2372
2016-08-18T06:17:23.800Z,2392
2016-08-18T06:18:23.783Z,2412
2016-08-18T06:19:23.760Z,2432
2016-08-18T06:20:23.031Z,2452
2016-08-18T06:21:23.731Z,2476
2016-08-18T06:22:23.730Z,2492
2016-08-18T06:23:23.710Z,2512
2016-08-18T06:24:23.683Z,2532
2016-08-18T06:25:22.955Z,2552
2016-08-18T06:26:22.940Z,2572
2016-08-18T06:27:22.940Z,2592
2016-08-18T06:28:22.908Z,2612
2016-08-18T06:29:22.897Z,2628
2016-08-18T06:30:22.378Z,2648
2016-08-18T06:31:23.602Z,2672
2016-08-18T06:32:22.858Z,2696
2016-08-18T06:33:22.847Z,2712
2016-08-18T06:34:21.383Z,2736
2016-08-18T06:35:22.804Z,2756
2016-08-18T06:36:23.521Z,2772
2016-08-18T06:37:23.500Z,2800
2016-08-18T06:38:22.752Z,2824
2016-08-18T06:39:23.467Z,2844
2016-08-18T06:40:22.064Z,2868
2016-08-18T06:41:23.441Z,2892
2016-08-18T06:42:23.447Z,2916
2016-08-18T06:43:23.387Z,2936
2016-08-18T06:44:23.430Z,2960
2016-08-18T06:45:22.805Z,2992
2016-08-18T06:46:23.361Z,3020
2016-08-18T06:47:23.696Z,3048
2016-08-18T06:48:23.406Z,3080
2016-08-18T06:49:23.310Z,3116
2016-08-18T06:50:23.351Z,3148
2016-08-18T06:51:22.581Z,3176
2016-08-18T06:52:22.643Z,3216
2016-08-18T06:53:22.548Z,3248
2016-08-18T06:54:23.247Z,3284
2016-08-18T06:55:23.261Z,3316
2016-08-18T06:56:23.298Z,3356
2016-08-18T06:57:23.194Z,3392
2016-08-18T06:58:22.480Z,3428
2016-08-18T06:59:22.459Z,3476
2016-08-18T07:00:23.169Z,3508
2016-08-18T07:01:23.156Z,3556
2016-08-18T07:02:23.168Z,3596
2016-08-18T07:03:22.396Z,3632
2016-08-18T07:04:22.396Z,3668
2016-08-18T07:05:23.211Z,3708
2016-08-18T07:06:22.400Z,3756
2016-08-18T07:07:22.359Z,3796
2016-08-18T07:08:22.326Z,3848
2016-08-18T07:09:20.899Z,3904
2016-08-18T07:10:21.590Z,4004
2016-08-18T07:11:22.467Z,8836
2016-08-18T07:12:22.991Z,28192
2016-08-18T07:13:22.251Z,52128
2016-08-18T07:14:23.005Z,76128
2016-08-18T07:15:22.232Z,96000
2016-08-18T07:16:22.999Z,103936
2016-08-18T07:17:22.930Z,100128
2016-08-18T07:18:22.208Z,96640
2016-08-18T07:19:22.196Z,67168
2016-08-18T07:20:22.297Z,28160
2016-08-18T07:21:22.858Z,6492
2016-08-18T07:22:22.942Z,5828
2016-08-18T07:23:22.858Z,5752
2016-08-18T07:24:22.176Z,5752
2016-08-18T07:25:21.621Z,5796
2016-08-18T07:26:22.878Z,5852
2016-08-18T07:27:22.140Z,5948
2016-08-18T07:28:22.801Z,6016
2016-08-18T07:29:22.810Z,6104
2016-08-18T07:30:22.101Z,6124
2016-08-18T07:31:22.791Z,6220
2016-08-18T07:32:22.100Z,6284
2016-08-18T07:33:22.052Z,6384
2016-08-18T07:34:22.831Z,6460
2016-08-18T07:35:22.781Z,6512
2016-08-18T07:36:29.985Z,6576
2016-08-18T07:37:22.115Z,6652
2016-08-18T07:38:22.746Z,6736
2016-08-18T07:39:22.071Z,6856
2016-08-18T07:40:22.147Z,7008
2016-08-18T07:41:22.771Z,7272
2016-08-18T07:42:22.738Z,7844
2016-08-18T07:43:22.030Z,29408
2016-08-18T07:44:22.724Z,82592
2016-08-18T07:45:21.422Z,105472
2016-08-18T07:46:22.070Z,103488
2016-08-18T07:47:22.728Z,100608
2016-08-18T07:48:22.717Z,101536
2016-08-18T07:49:22.072Z,97280
2016-08-18T07:50:22.099Z,95808
2016-08-18T07:51:22.762Z,99872
2016-08-18T07:52:22.720Z,106624
2016-08-18T07:53:22.738Z,102080
2016-08-18T07:54:21.998Z,93856
2016-08-18T07:55:22.721Z,94624
2016-08-18T07:56:22.710Z,103488
2016-08-18T07:57:22.768Z,107744
2016-08-18T07:58:21.989Z,102720
2016-08-18T07:59:22.007Z,95808
2016-08-18T08:00:22.108Z,99360
2016-08-18T08:01:22.047Z,106752
2016-08-18T08:02:22.008Z,102944
2016-08-18T08:03:22.011Z,90496
2016-08-18T08:04:22.726Z,90528
2016-08-18T08:05:21.430Z,98656
2016-08-18T08:06:22.716Z,102240
2016-08-18T08:07:22.011Z,98304
2016-08-18T08:08:21.290Z,97664
2016-08-18T08:09:22.726Z,96736
2016-08-18T08:10:22.021Z,93728
2016-08-18T08:11:22.738Z,94112
2016-08-18T08:12:22.738Z,98304
2016-08-18T08:13:22.055Z,98400
2016-08-18T08:14:22.047Z,94080
2016-08-18T08:15:21.326Z,90688
2016-08-18T08:16:21.349Z,89344
2016-08-18T08:17:22.050Z,85472
2016-08-18T08:18:22.761Z,83680
2016-08-18T08:19:22.770Z,85568
2016-08-18T08:20:22.239Z,85152
2016-08-18T08:21:22.123Z,88576
2016-08-18T08:22:22.070Z,87904
2016-08-18T08:23:22.778Z,87680
2016-08-18T08:24:22.104Z,87904
2016-08-18T08:25:24.331Z,84736
2016-08-18T08:26:23.159Z,83456
2016-08-18T08:27:21.386Z,79328
2016-08-18T08:28:22.792Z,78560
2016-08-18T08:29:21.384Z,85472
2016-08-18T08:30:22.092Z,81184
2016-08-18T08:31:23.137Z,76192
2016-08-18T08:32:21.390Z,81120
2016-08-18T08:33:22.107Z,85344
2016-08-18T08:34:21.508Z,84480
2016-08-18T08:35:25.680Z,85568
2016-08-18T08:36:22.856Z,83008
2016-08-18T08:37:21.464Z,79008
2016-08-18T08:38:23.123Z,88448
2016-08-18T08:39:21.487Z,91200
2016-08-18T08:40:24.703Z,84448
2016-08-18T08:41:22.148Z,86656
2016-08-18T08:42:22.152Z,87776
2016-08-18T08:43:21.424Z,85248
2016-08-18T08:44:22.151Z,83520
2016-08-18T08:45:23.502Z,82528
2016-08-18T08:46:22.866Z,80896
2016-08-18T08:47:22.203Z,87040
2016-08-18T08:48:22.891Z,84320
2016-08-18T08:49:22.897Z,77152
2016-08-18T08:50:24.096Z,82208
2016-08-18T08:51:22.908Z,84544
2016-08-18T08:52:22.319Z,80576
2016-08-18T08:53:22.220Z,76128
2016-08-18T08:54:22.228Z,77568
2016-08-18T08:55:22.950Z,82848
2016-08-18T08:56:21.961Z,83264
2016-08-18T08:57:23.195Z,80448
2016-08-18T08:58:22.830Z,84288
2016-08-18T08:59:23.114Z,84352
2016-08-18T09:00:22.933Z,79904
2016-08-18T09:01:22.336Z,82496
2016-08-18T09:02:22.261Z,74528
2016-08-18T09:03:22.246Z,76960
2016-08-18T09:04:22.986Z,74080
2016-08-18T09:05:22.280Z,72704
2016-08-18T09:06:22.980Z,77696
2016-08-18T09:07:22.269Z,70176
2016-08-18T09:08:21.565Z,69248
2016-08-18T09:09:22.320Z,68096
2016-08-18T09:10:23.269Z,66336
2016-08-18T09:11:21.557Z,71392
2016-08-18T09:12:23.020Z,77280
2016-08-18T09:13:23.010Z,76288
2016-08-18T09:14:23.010Z,76448
2016-08-18T09:15:23.121Z,81408
2016-08-18T09:16:22.307Z,85312
2016-08-18T09:17:22.328Z,80736
2016-08-18T09:18:23.034Z,77472
2016-08-18T09:19:22.331Z,80064
2016-08-18T09:20:22.983Z,79872
2016-08-18T09:21:21.618Z,74720
2016-08-18T09:22:21.621Z,72896
2016-08-18T09:23:23.145Z,75584
2016-08-18T09:24:20.998Z,75072
2016-08-18T09:25:23.657Z,75360
2016-08-18T09:26:22.371Z,75424
2016-08-18T09:27:23.146Z,74080
2016-08-18T09:28:20.970Z,74368
2016-08-18T09:29:23.218Z,75328
2016-08-18T09:30:23.250Z,77440
2016-08-18T09:31:21.670Z,73472
2016-08-18T09:32:20.973Z,69504
2016-08-18T09:33:22.493Z,70400
2016-08-18T09:34:22.142Z,64256
2016-08-18T09:35:24.170Z,71904
2016-08-18T09:36:23.906Z,77248
2016-08-18T09:37:23.939Z,71072
2016-08-18T09:38:23.157Z,71872
2016-08-18T09:39:22.409Z,69888
2016-08-18T09:40:22.946Z,67328
2016-08-18T09:41:23.169Z,66112
2016-08-18T09:42:23.208Z,64128
2016-08-18T09:43:22.450Z,65824
2016-08-18T09:44:22.468Z,65664
2016-08-18T09:45:23.733Z,67488
2016-08-18T09:46:22.460Z,63584
2016-08-18T09:47:23.171Z,64512
2016-08-18T09:48:22.464Z,62848
2016-08-18T09:49:23.183Z,60672
2016-08-18T09:50:23.694Z,60576
2016-08-18T09:51:23.208Z,60032
2016-08-18T09:52:22.486Z,59872
2016-08-18T09:53:23.178Z,60800
2016-08-18T09:54:22.490Z,62752
2016-08-18T09:55:23.159Z,60736
2016-08-18T09:56:22.489Z,58560
2016-08-18T09:57:22.530Z,58560
2016-08-18T09:58:21.816Z,56544
2016-08-18T09:59:22.511Z,55072
2016-08-18T10:00:22.633Z,53408
2016-08-18T10:01:22.519Z,55008
2016-08-18T10:02:22.531Z,57952
2016-08-18T10:03:22.500Z,57312
2016-08-18T10:04:22.510Z,57376
2016-08-18T10:05:24.614Z,55808
2016-08-18T10:06:21.819Z,53728
2016-08-18T10:07:22.671Z,50592
2016-08-18T10:08:22.518Z,51072
2016-08-18T10:09:23.286Z,50976
2016-08-18T10:10:48.520Z,51296
2016-08-18T10:11:23.503Z,49888
2016-08-18T10:12:23.459Z,51904
2016-08-18T10:13:21.810Z,53408
2016-08-18T10:14:22.521Z,48512
2016-08-18T10:15:23.562Z,43232
2016-08-18T10:16:22.540Z,43808
2016-08-18T10:17:23.241Z,49856
2016-08-18T10:18:22.529Z,48800
2016-08-18T10:19:22.516Z,28032
2016-08-18T10:20:22.537Z,9844
2016-08-18T10:21:23.229Z,8684
2016-08-18T10:22:22.565Z,8456
2016-08-18T10:23:22.521Z,8360
2016-08-18T10:24:22.538Z,8304
2016-08-18T10:25:22.256Z,8260
2016-08-18T10:26:22.501Z,8248
2016-08-18T10:27:23.219Z,8236
2016-08-18T10:28:22.600Z,8272
2016-08-18T10:29:23.226Z,8248
2016-08-18T10:30:23.989Z,8236
2016-08-18T10:31:23.239Z,8216
2016-08-18T10:32:23.226Z,8224
2016-08-18T10:33:22.498Z,8204
2016-08-18T10:34:23.198Z,8184
2016-08-18T10:35:22.487Z,8200
2016-08-18T10:36:21.769Z,8204
2016-08-18T10:37:22.484Z,8192
2016-08-18T10:38:22.487Z,8192
2016-08-18T10:39:22.472Z,8196
2016-08-18T10:40:22.488Z,8188
2016-08-18T10:41:21.798Z,8204
2016-08-18T10:42:22.469Z,8196
2016-08-18T10:43:21.742Z,8192
2016-08-18T10:44:21.732Z,8208
2016-08-18T10:45:23.676Z,8232
2016-08-18T10:46:21.735Z,8220
2016-08-18T10:47:23.186Z,8240
2016-08-18T10:48:22.439Z,8256
2016-08-18T10:49:22.437Z,8228
2016-08-18T10:50:23.172Z,8216
2016-08-18T10:51:23.208Z,8228
2016-08-18T10:52:22.415Z,8204
2016-08-18T10:53:23.168Z,8224
2016-08-18T10:54:21.704Z,8248
2016-08-18T10:55:23.455Z,8232
2016-08-18T10:56:23.122Z,8256
2016-08-18T10:57:23.133Z,8252
2016-08-18T10:58:22.418Z,8256
2016-08-18T10:59:22.396Z,8268
2016-08-18T11:00:23.381Z,8268
2016-08-18T11:01:22.393Z,8264
2016-08-18T11:02:22.388Z,8244
2016-08-18T11:03:22.391Z,8240
2016-08-18T11:04:22.369Z,8264
2016-08-18T11:05:23.247Z,8244
2016-08-18T11:06:22.378Z,8252
2016-08-18T11:07:22.371Z,8248
2016-08-18T11:08:22.425Z,8240
2016-08-18T11:09:22.386Z,8224
2016-08-18T11:10:21.654Z,8220
2016-08-18T11:11:21.625Z,8212
2016-08-18T11:12:22.388Z,8212
2016-08-18T11:13:22.359Z,8220
2016-08-18T11:14:23.057Z,8216
2016-08-18T11:15:22.387Z,8188
2016-08-18T11:16:23.045Z,8188
2016-08-18T11:17:22.330Z,8208
2016-08-18T11:18:21.617Z,8204
2016-08-18T11:19:22.346Z,8180
2016-08-18T11:20:23.417Z,8204
2016-08-18T11:21:23.046Z,8064
2016-08-18T11:22:22.317Z,8068
2016-08-18T11:23:22.323Z,8052
2016-08-18T11:24:22.316Z,8056
2016-08-18T11:25:21.680Z,8048
2016-08-18T11:26:23.045Z,8056
2016-08-18T11:27:23.012Z,8068
2016-08-18T11:28:23.019Z,8052
2016-08-18T11:29:22.298Z,8044
2016-08-18T11:30:23.050Z,8052
2016-08-18T11:31:22.995Z,8068
2016-08-18T11:32:22.296Z,8084
2016-08-18T11:33:23.025Z,8088
2016-08-18T11:34:22.368Z,8128
2016-08-18T11:35:21.799Z,8176
2016-08-18T11:36:23.003Z,8236
2016-08-18T11:37:22.249Z,8260
2016-08-18T11:38:23.028Z,8272
2016-08-18T11:39:22.971Z,8280
2016-08-18T11:40:23.443Z,8300
2016-08-18T11:41:22.969Z,8316
2016-08-18T11:42:22.955Z,8320
2016-08-18T11:43:22.956Z,8332
2016-08-18T11:44:22.387Z,8356
2016-08-18T11:45:22.953Z,8360
2016-08-18T11:46:22.948Z,8400
2016-08-18T11:47:22.422Z,8420
2016-08-18T11:48:20.947Z,8448
2016-08-18T11:49:21.567Z,8468
2016-08-18T11:50:22.938Z,8484
2016-08-18T11:51:22.933Z,8480
2016-08-18T11:52:22.211Z,8480
2016-08-18T11:53:23.008Z,8504
2016-08-18T11:54:22.916Z,8512
2016-08-18T11:55:23.662Z,8492
2016-08-18T11:56:22.904Z,8516
2016-08-18T12:12:02.039Z,8732
2016-08-18T12:13:01.262Z,8788
2016-08-18T12:14:01.284Z,8740
2016-08-18T12:15:01.874Z,8724
2016-08-18T12:16:01.925Z,8740
2016-08-18T12:17:01.854Z,8736
2016-08-18T12:18:02.584Z,8716
2016-08-18T12:19:01.151Z,8728
2016-08-18T12:20:01.940Z,8712
2016-08-18T12:21:02.581Z,8736
2016-08-18T12:22:02.582Z,8828
2016-08-18T12:23:01.180Z,8828
2016-08-18T12:24:01.847Z,8812
2016-08-18T12:25:01.171Z,8512
2016-08-18T12:26:02.548Z,8804
2016-08-18T12:27:02.544Z,8804
2016-08-18T12:28:01.825Z,8776
2016-08-18T12:29:01.823Z,8824
2016-08-18T12:30:02.520Z,8796
2016-08-18T12:31:01.832Z,8800
2016-08-18T12:32:01.818Z,8784
2016-08-18T12:33:02.520Z,8840
2016-08-18T12:34:02.528Z,8764
2016-08-18T12:35:02.529Z,8748
2016-08-18T12:36:01.790Z,8744
2016-08-18T12:37:01.786Z,8744
2016-08-18T12:38:01.069Z,8772
2016-08-18T12:39:02.509Z,8784
2016-08-18T12:40:01.047Z,8772
2016-08-18T12:41:02.483Z,8764
2016-08-18T12:42:02.493Z,8728
2016-08-18T12:43:02.483Z,8740
2016-08-18T12:44:02.482Z,8740
2016-08-18T12:45:01.043Z,8720
2016-08-18T12:46:02.467Z,8700
2016-08-18T12:47:01.783Z,8684
2016-08-18T12:48:01.756Z,8684
2016-08-18T12:49:01.028Z,8700
2016-08-18T12:50:01.740Z,8736
2016-08-18T12:51:02.450Z,8732
2016-08-18T12:52:01.745Z,8752
2016-08-18T12:53:01.723Z,8760
2016-08-18T12:54:01.718Z,8752
2016-08-18T12:55:01.723Z,8748
2016-08-18T12:56:02.434Z,8728
2016-08-18T12:57:01.715Z,8704
2016-08-18T12:58:01.807Z,8688
2016-08-18T12:59:01.794Z,8664
2016-08-18T13:00:01.749Z,8088
2016-08-18T13:01:00.995Z,8416
2016-08-18T13:02:01.699Z,8060
2016-08-18T13:03:02.416Z,8120
2016-08-18T13:04:02.406Z,8080
2016-08-18T13:05:02.405Z,8152
2016-08-18T13:06:02.393Z,8152
2016-08-18T13:07:01.683Z,8116
2016-08-18T13:08:01.663Z,8104
2016-08-18T13:09:02.385Z,8112
2016-08-18T13:10:01.668Z,8136
2016-08-18T13:11:02.380Z,8116
2016-08-18T13:12:01.691Z,8008
2016-08-18T13:13:01.666Z,8624
2016-08-18T13:14:01.678Z,8708
2016-08-18T13:15:00.214Z,8720
2016-08-18T13:16:00.938Z,8680
2016-08-18T13:17:01.637Z,8692
2016-08-18T13:18:02.371Z,8656
2016-08-18T13:19:00.928Z,8636
2016-08-18T13:20:01.625Z,8620
2016-08-18T13:21:01.784Z,8632
2016-08-18T13:22:02.347Z,8652
2016-08-18T13:23:00.215Z,8644
2016-08-18T13:24:02.346Z,8648
2016-08-18T13:25:00.901Z,8640
2016-08-18T13:26:02.335Z,8644
2016-08-18T13:27:02.329Z,8636
2016-08-18T13:28:02.333Z,8636
2016-08-18T13:29:01.613Z,8648
2016-08-18T13:30:01.611Z,8624
2016-08-18T13:31:01.603Z,8312
2016-08-18T13:32:01.592Z,8636
2016-08-18T13:33:01.605Z,8632
2016-08-18T13:34:01.606Z,8624
2016-08-18T13:35:01.579Z,8620
2016-08-18T13:36:01.570Z,8632
2016-08-18T13:37:01.557Z,8616
2016-08-18T13:38:01.563Z,8632
2016-08-18T13:39:01.553Z,8608
2016-08-18T13:40:02.282Z,8592
2016-08-18T13:41:01.625Z,8596
2016-08-18T13:42:00.842Z,8604
2016-08-18T13:43:01.539Z,8576
2016-08-18T13:44:01.548Z,8588
2016-08-18T13:45:00.099Z,8576
2016-08-18T13:46:01.544Z,8552
2016-08-18T13:47:02.310Z,8544
2016-08-18T13:48:02.253Z,8512
2016-08-18T13:49:00.099Z,8496
2016-08-18T13:50:01.520Z,8516
2016-08-18T13:51:00.798Z,8500
2016-08-18T13:52:01.508Z,8484
2016-08-18T13:53:01.503Z,8456